createdAt,value
2023-05-13T00:00:35.188Z,14.20
2023-05-13T00:01:35.205Z,14.28
2023-05-13T00:02:35.361Z,14.22
2023-05-13T00:03:35.348Z,14.22
2023-05-13T00:04:35.257Z,14.18
2023-05-13T00:05:35.276Z,14.22
2023-05-13T00:06:35.326Z,14.13
2023-05-13T00:07:35.316Z,14.13
2023-05-13T00:08:35.337Z,14.16
2023-05-13T00:09:35.351Z,14.08
2023-05-13T00:10:35.365Z,14.04
2023-05-13T00:11:35.383Z,14.12
2023-05-13T00:12:35.401Z,14.04
2023-05-13T00:13:35.415Z,14.03
2023-05-13T00:14:35.434Z,14.04
2023-05-13T00:15:35.457Z,14.00
2023-05-13T00:16:35.510Z,13.97
2023-05-13T00:17:35.500Z,13.97
2023-05-13T00:18:35.578Z,13.95
2023-05-13T00:19:35.535Z,13.83
2023-05-13T00:20:35.544Z,13.83
2023-05-13T00:21:35.562Z,13.87
2023-05-13T00:22:35.582Z,13.86
2023-05-13T00:23:35.598Z,13.91
2023-05-13T00:24:35.618Z,13.93
2023-05-13T00:25:35.637Z,13.94
2023-05-13T00:26:35.650Z,13.91
2023-05-13T00:27:35.668Z,13.91
2023-05-13T00:28:35.684Z,13.85
2023-05-13T00:29:35.700Z,13.83
2023-05-13T00:30:35.722Z,13.78
2023-05-13T00:31:35.792Z,13.80
2023-05-13T00:32:35.810Z,13.83
2023-05-13T00:33:35.770Z,13.79
2023-05-13T00:34:35.793Z,13.82
2023-05-13T00:35:35.824Z,13.76
2023-05-13T00:36:35.835Z,13.71
2023-05-13T00:37:35.853Z,13.82
2023-05-13T00:38:35.859Z,13.75
2023-05-13T00:39:35.881Z,13.80
2023-05-13T00:40:35.903Z,13.70
2023-05-13T00:41:35.931Z,13.61
2023-05-13T00:42:35.933Z,13.64
2023-05-13T00:43:35.961Z,13.67
2023-05-13T00:44:35.978Z,13.62
2023-05-13T00:45:36.022Z,13.55
2023-05-13T00:46:35.999Z,13.60
2023-05-13T00:47:36.050Z,13.62
2023-05-13T00:48:36.036Z,13.61
2023-05-13T00:49:36.052Z,13.61
2023-05-13T00:50:36.068Z,13.49
2023-05-13T00:51:36.084Z,13.45
2023-05-13T00:52:36.110Z,13.50
2023-05-13T00:53:36.130Z,13.50
2023-05-13T00:54:36.143Z,13.45
2023-05-13T00:55:36.159Z,13.47
2023-05-13T00:56:36.174Z,13.36
2023-05-13T00:57:36.196Z,13.37
2023-05-13T00:58:36.207Z,13.47
2023-05-13T00:59:36.225Z,13.39
2023-05-13T01:00:36.244Z,13.33
2023-05-13T01:01:36.455Z,13.42
2023-05-13T01:02:36.336Z,13.37
2023-05-13T01:03:36.384Z,13.30
2023-05-13T01:04:36.310Z,13.28
2023-05-13T01:05:36.327Z,13.28
2023-05-13T01:06:36.346Z,13.31
2023-05-13T01:07:36.358Z,13.37
2023-05-13T01:08:36.424Z,13.33
2023-05-13T01:09:36.399Z,13.36
2023-05-13T01:10:36.410Z,13.31
2023-05-13T01:11:36.436Z,13.31
2023-05-13T01:12:36.453Z,13.28
2023-05-13T01:13:36.464Z,13.24
2023-05-13T01:14:36.480Z,13.23
2023-05-13T01:15:36.510Z,13.26
2023-05-13T01:16:36.570Z,13.26
2023-05-13T01:17:36.603Z,13.27
2023-05-13T01:18:36.596Z,13.26
2023-05-13T01:19:36.567Z,13.28
2023-05-13T01:20:36.586Z,13.26
2023-05-13T01:21:36.600Z,13.30
2023-05-13T01:22:36.620Z,13.30
2023-05-13T01:23:36.634Z,13.23
2023-05-13T01:24:36.700Z,13.28
2023-05-13T01:25:36.673Z,13.26
2023-05-13T01:26:36.690Z,13.26
2023-05-13T01:27:36.714Z,13.27
2023-05-13T01:28:36.724Z,13.26
2023-05-13T01:29:36.739Z,13.16
2023-05-13T01:30:36.769Z,13.24
2023-05-13T01:31:36.899Z,13.24
2023-05-13T01:32:36.844Z,13.24
2023-05-13T01:33:36.808Z,13.31
2023-05-13T01:34:36.841Z,13.26
2023-05-13T01:35:36.846Z,13.20
2023-05-13T01:36:36.866Z,13.23
2023-05-13T01:37:36.877Z,13.23
2023-05-13T01:38:36.892Z,13.13
2023-05-13T01:39:36.913Z,13.11
2023-05-13T01:40:37.236Z,13.20
2023-05-13T01:41:36.947Z,13.19
2023-05-13T01:42:36.965Z,13.13
2023-05-13T01:43:36.981Z,13.11
2023-05-13T01:44:37.000Z,13.01
2023-05-13T01:45:37.024Z,13.08
2023-05-13T01:46:37.059Z,13.11
2023-05-13T01:47:37.086Z,12.98
2023-05-13T01:48:37.068Z,13.02
2023-05-13T01:49:37.091Z,12.98
2023-05-13T01:50:37.109Z,12.99
2023-05-13T01:51:37.117Z,12.98
2023-05-13T01:52:37.141Z,12.99
2023-05-13T01:53:37.152Z,12.95
2023-05-13T01:54:37.180Z,12.99
2023-05-13T01:55:37.185Z,12.95
2023-05-13T01:56:37.211Z,12.93
2023-05-13T01:57:37.218Z,12.94
2023-05-13T01:58:37.266Z,12.95
2023-05-13T01:59:37.261Z,12.95
2023-05-13T02:00:37.274Z,12.95
2023-05-13T02:01:37.347Z,12.93
2023-05-13T02:02:37.378Z,12.98
2023-05-13T02:03:37.365Z,12.91
2023-05-13T02:04:37.342Z,12.81
2023-05-13T02:05:37.360Z,12.88
2023-05-13T02:06:37.377Z,12.84
2023-05-13T02:07:37.400Z,12.88
2023-05-13T02:08:37.409Z,12.87
2023-05-13T02:09:37.449Z,12.88
2023-05-13T02:10:37.454Z,12.83
2023-05-13T02:11:37.470Z,12.83
2023-05-13T02:12:37.474Z,12.84
2023-05-13T02:13:37.506Z,12.83
2023-05-13T02:14:37.516Z,12.80
2023-05-13T02:15:37.541Z,12.83
2023-05-13T02:16:37.597Z,12.81
2023-05-13T02:17:37.602Z,12.78
2023-05-13T02:18:37.589Z,12.83
2023-05-13T02:19:37.596Z,12.76
2023-05-13T02:20:37.624Z,12.83
2023-05-13T02:21:37.637Z,12.86
2023-05-13T02:22:37.648Z,12.81
2023-05-13T02:23:37.669Z,12.83
2023-05-13T02:24:37.688Z,12.81
2023-05-13T02:25:37.697Z,12.81
2023-05-13T02:26:37.719Z,12.78
2023-05-13T02:27:37.734Z,12.80
2023-05-13T02:28:37.750Z,12.81
2023-05-13T02:29:37.775Z,12.81
2023-05-13T02:30:37.788Z,12.87
2023-05-13T02:31:37.812Z,12.87
2023-05-13T02:32:37.834Z,12.83
2023-05-13T02:33:37.848Z,12.72
2023-05-13T02:34:37.896Z,12.75
2023-05-13T02:35:37.865Z,12.76
2023-05-13T02:36:37.885Z,12.69
2023-05-13T02:37:37.903Z,12.70
2023-05-13T02:38:37.932Z,12.68
2023-05-13T02:39:37.939Z,12.63
2023-05-13T02:40:37.966Z,12.69
2023-05-13T02:41:37.968Z,12.63
2023-05-13T02:42:37.983Z,12.65
2023-05-13T02:43:38.002Z,12.73
2023-05-13T02:44:38.024Z,12.72
2023-05-13T02:45:38.080Z,12.69
2023-05-13T02:46:38.068Z,12.66
2023-05-13T02:47:38.109Z,12.58
2023-05-13T02:48:38.095Z,12.55
2023-05-13T02:49:38.109Z,12.53
2023-05-13T02:50:38.125Z,12.55
2023-05-13T02:51:38.136Z,12.53
2023-05-13T02:52:38.155Z,12.54
2023-05-13T02:53:38.169Z,12.50
2023-05-13T02:54:38.214Z,12.39
2023-05-13T02:55:38.212Z,12.50
2023-05-13T02:56:38.217Z,12.51
2023-05-13T02:57:38.252Z,12.45
2023-05-13T02:58:38.253Z,12.39
2023-05-13T02:59:38.281Z,12.44
2023-05-13T03:00:38.293Z,12.37
2023-05-13T03:01:38.338Z,12.43
2023-05-13T03:02:38.422Z,12.37
2023-05-13T03:03:38.503Z,12.40
2023-05-13T03:04:38.352Z,12.44
2023-05-13T03:05:38.373Z,12.44
2023-05-13T03:06:38.386Z,12.39
2023-05-13T03:07:38.413Z,12.45
2023-05-13T03:08:38.427Z,12.39
2023-05-13T03:09:38.438Z,12.53
2023-05-13T03:10:38.454Z,12.53
2023-05-13T03:11:38.474Z,12.53
2023-05-13T03:12:38.488Z,12.55
2023-05-13T03:13:38.511Z,12.57
2023-05-13T03:14:38.518Z,12.55
2023-05-13T03:15:38.582Z,12.57
2023-05-13T03:16:38.616Z,12.54
2023-05-13T03:17:38.623Z,12.58
2023-05-13T03:18:38.687Z,12.58
2023-05-13T03:19:38.604Z,12.54
2023-05-13T03:20:38.634Z,12.57
2023-05-13T03:21:38.649Z,12.47
2023-05-13T03:22:38.672Z,12.53
2023-05-13T03:23:38.692Z,12.40
2023-05-13T03:24:38.687Z,12.53
2023-05-13T03:25:38.706Z,12.50
2023-05-13T03:26:38.720Z,12.53
2023-05-13T03:27:38.736Z,12.43
2023-05-13T03:28:38.764Z,12.40
2023-05-13T03:29:38.770Z,12.43
2023-05-13T03:30:38.785Z,12.40
2023-05-13T03:31:38.825Z,12.43
2023-05-13T03:32:38.854Z,12.43
2023-05-13T03:33:38.835Z,12.40
2023-05-13T03:34:38.852Z,12.36
2023-05-13T03:35:38.864Z,12.36
2023-05-13T03:36:38.887Z,12.35
2023-05-13T03:37:38.901Z,12.36
2023-05-13T03:38:38.916Z,12.33
2023-05-13T03:39:38.936Z,12.30
2023-05-13T03:40:38.949Z,12.25
2023-05-13T03:41:38.969Z,12.26
2023-05-13T03:42:38.983Z,12.25
2023-05-13T03:43:39.000Z,12.28
2023-05-13T03:44:39.017Z,12.23
2023-05-13T03:45:39.038Z,12.25
2023-05-13T03:46:39.117Z,12.26
2023-05-13T03:47:39.137Z,12.28
2023-05-13T03:48:39.086Z,12.25
2023-05-13T03:49:39.099Z,12.21
2023-05-13T03:50:39.116Z,12.25
2023-05-13T03:51:39.137Z,12.17
2023-05-13T03:52:39.168Z,12.17
2023-05-13T03:53:39.163Z,12.18
2023-05-13T03:54:39.188Z,12.14
2023-05-13T03:55:39.211Z,12.12
2023-05-13T03:56:39.218Z,12.17
2023-05-13T03:57:39.235Z,12.15
2023-05-13T03:58:39.263Z,12.08
2023-05-13T03:59:39.282Z,12.14
2023-05-13T04:00:39.284Z,12.12
2023-05-13T04:01:39.358Z,12.10
2023-05-13T04:02:39.439Z,12.11
2023-05-13T04:03:39.333Z,12.12
2023-05-13T04:04:39.378Z,12.12
2023-05-13T04:05:39.381Z,12.14
2023-05-13T04:06:39.379Z,12.08
2023-05-13T04:07:39.399Z,12.14
2023-05-13T04:08:39.437Z,12.07
2023-05-13T04:09:39.430Z,11.99
2023-05-13T04:10:39.448Z,12.03
2023-05-13T04:11:39.465Z,12.11
2023-05-13T04:12:39.482Z,12.10
2023-05-13T04:13:39.498Z,12.11
2023-05-13T04:14:39.510Z,12.07
2023-05-13T04:15:39.533Z,12.08
2023-05-13T04:16:39.596Z,12.07
2023-05-13T04:17:39.576Z,12.11
2023-05-13T04:18:39.644Z,12.02
2023-05-13T04:19:39.592Z,12.05
2023-05-13T04:20:39.623Z,12.02
2023-05-13T04:21:39.628Z,12.18
2023-05-13T04:22:39.644Z,12.08
2023-05-13T04:23:39.663Z,12.08
2023-05-13T04:24:39.686Z,12.11
2023-05-13T04:25:39.714Z,12.12
2023-05-13T04:26:39.714Z,12.08
2023-05-13T04:27:39.726Z,12.17
2023-05-13T04:28:39.750Z,12.08
2023-05-13T04:29:39.761Z,12.10
2023-05-13T04:30:39.773Z,12.08
2023-05-13T04:31:39.817Z,12.14
2023-05-13T04:32:39.860Z,12.08
2023-05-13T04:33:39.826Z,12.11
2023-05-13T04:34:39.840Z,12.17
2023-05-13T04:35:39.859Z,12.21
2023-05-13T04:36:39.874Z,12.25
2023-05-13T04:37:39.897Z,12.20
2023-05-13T04:38:39.907Z,12.23
2023-05-13T04:39:39.922Z,12.25
2023-05-13T04:40:39.944Z,12.25
2023-05-13T04:41:39.954Z,12.23
2023-05-13T04:42:39.971Z,12.20
2023-05-13T04:43:39.989Z,12.25
2023-05-13T04:44:40.005Z,12.23
2023-05-13T04:45:40.017Z,12.26
2023-05-13T04:46:40.084Z,12.28
2023-05-13T04:47:40.065Z,12.39
2023-05-13T04:48:40.077Z,12.36
2023-05-13T04:49:40.087Z,12.33
2023-05-13T04:50:40.109Z,12.32
2023-05-13T04:51:40.126Z,12.44
2023-05-13T04:52:40.139Z,12.44
2023-05-13T04:53:40.149Z,12.45
2023-05-13T04:54:40.177Z,12.47
2023-05-13T04:55:40.185Z,12.44
2023-05-13T04:56:40.202Z,12.44
2023-05-13T04:57:40.228Z,12.44
2023-05-13T04:58:40.237Z,12.44
2023-05-13T04:59:40.261Z,12.53
2023-05-13T05:00:40.268Z,12.53
2023-05-13T05:01:40.332Z,12.54
2023-05-13T05:02:40.358Z,12.53
2023-05-13T05:03:40.357Z,12.66
2023-05-13T05:04:40.342Z,12.58
2023-05-13T05:05:40.353Z,12.62
2023-05-13T05:06:40.381Z,12.68
2023-05-13T05:07:40.550Z,12.63
2023-05-13T05:08:40.414Z,12.68
2023-05-13T05:09:40.423Z,12.63
2023-05-13T05:10:40.438Z,12.68
2023-05-13T05:11:40.456Z,12.73
2023-05-13T05:12:40.473Z,12.65
2023-05-13T05:13:40.489Z,12.70
2023-05-13T05:14:40.509Z,12.72
2023-05-13T05:15:40.524Z,12.73
2023-05-13T05:16:40.542Z,12.75
2023-05-13T05:17:40.622Z,12.80
2023-05-13T05:18:40.665Z,12.75
2023-05-13T05:19:40.603Z,12.84
2023-05-13T05:20:40.606Z,12.76
2023-05-13T05:21:40.626Z,12.70
2023-05-13T05:22:40.647Z,12.84
2023-05-13T05:23:40.660Z,12.83
2023-05-13T05:24:40.685Z,12.84
2023-05-13T05:25:40.718Z,12.86
2023-05-13T05:26:42.785Z,12.95
2023-05-13T05:27:40.736Z,12.93
2023-05-13T05:28:40.754Z,12.95
2023-05-13T05:29:40.761Z,13.02
2023-05-13T05:30:40.782Z,13.13
2023-05-13T05:31:40.826Z,13.13
2023-05-13T05:32:40.833Z,13.17
2023-05-13T05:33:40.828Z,13.27
2023-05-13T05:34:40.850Z,13.36
2023-05-13T05:35:40.868Z,13.46
2023-05-13T05:36:40.896Z,13.58
2023-05-13T05:37:40.899Z,13.55
2023-05-13T05:38:40.916Z,13.67
2023-05-13T05:39:40.939Z,13.73
2023-05-13T05:40:40.954Z,13.78
2023-05-13T05:41:40.974Z,13.85
2023-05-13T05:42:40.991Z,13.87
2023-05-13T05:43:41.008Z,13.91
2023-05-13T05:44:41.027Z,13.97
2023-05-13T05:45:41.084Z,14.04
2023-05-13T05:46:41.060Z,14.08
2023-05-13T05:47:41.110Z,14.05
2023-05-13T05:48:41.105Z,14.16
2023-05-13T05:49:41.116Z,14.22
2023-05-13T05:50:41.137Z,14.19
2023-05-13T05:51:41.157Z,14.13
2023-05-13T05:52:41.172Z,14.19
2023-05-13T05:53:41.387Z,14.26
2023-05-13T05:54:41.222Z,14.23
2023-05-13T05:55:41.233Z,14.34
2023-05-13T05:56:41.257Z,14.31
2023-05-13T05:57:41.261Z,14.44
2023-05-13T05:58:41.280Z,14.51
2023-05-13T05:59:41.297Z,14.40
2023-05-13T06:00:41.318Z,14.55
2023-05-13T06:01:41.350Z,14.63
2023-05-13T06:02:41.417Z,14.63
2023-05-13T06:03:41.420Z,14.67
2023-05-13T06:04:41.464Z,14.74
2023-05-13T06:05:41.411Z,14.73
2023-05-13T06:06:41.500Z,14.79
2023-05-13T06:07:41.485Z,14.78
2023-05-13T06:08:41.468Z,14.86
2023-05-13T06:09:41.501Z,14.94
2023-05-13T06:10:41.501Z,14.90
2023-05-13T06:11:41.520Z,15.04
2023-05-13T06:12:41.537Z,15.04
2023-05-13T06:13:41.558Z,15.10
2023-05-13T06:14:41.584Z,15.12
2023-05-13T06:15:41.611Z,15.04
2023-05-13T06:16:41.629Z,15.18
2023-05-13T06:17:41.731Z,15.27
2023-05-13T06:18:41.681Z,15.30
2023-05-13T06:19:41.680Z,15.41
2023-05-13T06:20:41.711Z,15.41
2023-05-13T06:21:41.722Z,15.57
2023-05-13T06:22:41.729Z,15.70
2023-05-13T06:23:41.748Z,15.80
2023-05-13T06:24:41.764Z,15.88
2023-05-13T06:25:41.784Z,16.03
2023-05-13T06:26:41.808Z,16.10
2023-05-13T06:27:41.829Z,16.34
2023-05-13T06:28:41.846Z,16.61
2023-05-13T06:29:41.866Z,16.89
2023-05-13T06:30:41.884Z,17.10
2023-05-13T06:31:41.962Z,17.38
2023-05-13T06:32:50.161Z,17.54
2023-05-13T06:33:41.949Z,17.87
2023-05-13T06:34:41.968Z,18.02
2023-05-13T06:35:41.989Z,18.30
2023-05-13T06:36:42.011Z,18.46
2023-05-13T06:37:42.032Z,18.67
2023-05-13T06:38:42.055Z,18.89
2023-05-13T06:39:42.086Z,19.16
2023-05-13T06:40:42.096Z,19.41
2023-05-13T06:41:42.137Z,19.52
2023-05-13T06:42:42.143Z,19.63
2023-05-13T06:43:42.184Z,19.85
2023-05-13T06:44:42.200Z,20.11
2023-05-13T06:45:42.214Z,20.15
2023-05-13T06:46:42.252Z,20.34
2023-05-13T06:47:42.306Z,20.55
2023-05-13T06:48:42.281Z,20.66
2023-05-13T06:49:42.328Z,20.93
2023-05-13T06:50:42.329Z,21.14
2023-05-13T06:51:42.379Z,21.29
2023-05-13T06:52:42.388Z,21.58
2023-05-13T06:53:42.399Z,21.62
2023-05-13T06:54:42.425Z,21.78
2023-05-13T06:55:42.468Z,21.96
2023-05-13T06:56:42.472Z,22.10
2023-05-13T06:57:43.420Z,22.03
2023-05-13T06:58:42.525Z,22.10
2023-05-13T06:59:42.552Z,22.28
2023-05-13T07:00:42.579Z,22.38
2023-05-13T07:01:42.593Z,22.44
2023-05-13T07:02:42.671Z,22.51
2023-05-13T07:03:42.685Z,22.70
2023-05-13T07:04:42.669Z,22.83
2023-05-13T07:05:42.695Z,22.89
2023-05-13T07:06:42.721Z,22.96
2023-05-13T07:07:42.746Z,22.96
2023-05-13T07:08:42.770Z,22.96
2023-05-13T07:09:42.795Z,23.08
2023-05-13T07:10:42.822Z,23.18
2023-05-13T07:11:42.848Z,23.25
2023-05-13T07:12:42.870Z,23.33
2023-05-13T07:13:42.894Z,23.47
2023-05-13T07:14:42.922Z,23.59
2023-05-13T07:15:42.951Z,23.67
2023-05-13T07:16:43.009Z,23.76
2023-05-13T07:17:43.090Z,23.79
2023-05-13T07:18:43.064Z,23.92
2023-05-13T07:19:43.050Z,23.96
2023-05-13T07:20:43.077Z,24.06
2023-05-13T07:21:43.104Z,24.06
2023-05-13T07:22:43.127Z,24.07
2023-05-13T07:23:44.364Z,24.13
2023-05-13T07:24:43.193Z,24.16
2023-05-13T07:25:43.211Z,24.21
2023-05-13T07:26:43.238Z,24.22
2023-05-13T07:27:43.260Z,24.25
2023-05-13T07:28:43.289Z,24.34
2023-05-13T07:29:43.313Z,24.43
2023-05-13T07:30:43.370Z,24.59
2023-05-13T07:31:43.371Z,24.61
2023-05-13T07:32:43.498Z,24.50
2023-05-13T07:33:43.422Z,24.56
2023-05-13T07:34:43.448Z,24.61
2023-05-13T07:35:43.487Z,24.58
2023-05-13T07:36:43.504Z,24.61
2023-05-13T07:37:43.534Z,24.56
2023-05-13T07:38:43.561Z,24.74
2023-05-13T07:39:43.586Z,24.77
2023-05-13T07:40:43.625Z,24.68
2023-05-13T07:41:43.658Z,24.69
2023-05-13T07:42:43.666Z,24.78
2023-05-13T07:43:43.702Z,24.88
2023-05-13T07:44:43.723Z,24.85
2023-05-13T07:45:43.749Z,24.81
2023-05-13T07:46:43.838Z,24.55
2023-05-13T07:47:44.608Z,24.29
2023-05-13T07:48:43.846Z,24.37
2023-05-13T07:49:43.859Z,24.46
2023-05-13T07:50:43.892Z,24.31
2023-05-13T07:51:43.934Z,24.40
2023-05-13T07:52:43.942Z,24.43
2023-05-13T07:53:43.970Z,24.46
2023-05-13T07:54:44.003Z,24.37
2023-05-13T07:55:44.031Z,24.43
2023-05-13T07:56:44.112Z,24.37
2023-05-13T07:57:44.093Z,24.41
2023-05-13T07:58:44.109Z,24.44
2023-05-13T07:59:44.950Z,24.50
2023-05-13T08:00:44.164Z,24.44
2023-05-13T08:01:44.193Z,24.36
2023-05-13T08:02:44.291Z,24.26
2023-05-13T08:03:44.428Z,24.31
2023-05-13T08:04:44.326Z,24.24
2023-05-13T08:05:44.301Z,24.21
2023-05-13T08:06:44.332Z,24.21
2023-05-13T08:07:44.358Z,24.25
2023-05-13T08:08:44.391Z,24.24
2023-05-13T08:09:44.413Z,24.24
2023-05-13T08:10:44.441Z,24.24
2023-05-13T08:11:44.469Z,24.29
2023-05-13T08:12:44.495Z,24.19
2023-05-13T08:13:44.524Z,24.29
2023-05-13T08:14:45.148Z,24.29
2023-05-13T08:15:44.583Z,24.25
2023-05-13T08:16:44.716Z,24.38
2023-05-13T08:17:44.665Z,24.28
2023-05-13T08:18:44.698Z,24.13
2023-05-13T08:19:44.694Z,24.19
2023-05-13T08:20:44.725Z,24.07
2023-05-13T08:21:44.760Z,23.95
2023-05-13T08:22:44.779Z,23.88
2023-05-13T08:23:45.843Z,23.79
2023-05-13T08:24:44.850Z,23.64
2023-05-13T08:25:44.870Z,23.66
2023-05-13T08:26:44.894Z,23.48
2023-05-13T08:27:44.920Z,23.39
2023-05-13T08:28:44.949Z,23.32
2023-05-13T08:29:44.983Z,23.28
2023-05-13T08:30:45.006Z,23.18
2023-05-13T08:31:45.073Z,23.16
2023-05-13T08:32:45.148Z,23.20
2023-05-13T08:33:45.090Z,23.01
2023-05-13T08:34:45.112Z,23.01
2023-05-13T08:35:45.144Z,22.95
2023-05-13T08:36:45.167Z,22.99
2023-05-13T08:37:45.197Z,22.77
2023-05-13T08:38:45.221Z,22.74
2023-05-13T08:39:45.256Z,22.78
2023-05-13T08:40:45.276Z,22.68
2023-05-13T08:41:45.304Z,22.58
2023-05-13T08:42:45.330Z,22.63
2023-05-13T08:43:45.360Z,22.62
2023-05-13T08:44:45.381Z,22.59
2023-05-13T08:45:45.435Z,22.49
2023-05-13T08:46:45.507Z,22.52
2023-05-13T08:47:45.504Z,22.51
2023-05-13T08:48:45.496Z,22.51
2023-05-13T08:49:45.543Z,22.52
2023-05-13T08:50:45.607Z,22.53
2023-05-13T08:51:45.578Z,22.46
2023-05-13T08:52:45.614Z,22.46
2023-05-13T08:53:45.629Z,22.46
2023-05-13T08:54:45.658Z,22.56
2023-05-13T08:55:45.681Z,22.47
2023-05-13T08:56:45.710Z,22.46
2023-05-13T08:57:45.734Z,22.49
2023-05-13T08:58:45.763Z,22.43
2023-05-13T08:59:45.790Z,22.46
2023-05-13T09:00:45.819Z,22.51
2023-05-13T09:01:45.900Z,22.56
2023-05-13T09:02:45.936Z,22.47
2023-05-13T09:03:45.906Z,22.47
2023-05-13T09:04:45.960Z,22.37
2023-05-13T09:05:45.959Z,22.43
2023-05-13T09:06:45.983Z,22.49
2023-05-13T09:07:46.013Z,22.43
2023-05-13T09:08:46.040Z,22.51
2023-05-13T09:09:46.078Z,22.52
2023-05-13T09:10:46.093Z,22.53
2023-05-13T09:11:46.120Z,22.58
2023-05-13T09:12:46.148Z,22.56
2023-05-13T09:13:46.175Z,22.63
2023-05-13T09:14:46.204Z,22.67
2023-05-13T09:15:46.273Z,22.78
2023-05-13T09:16:46.262Z,22.84
2023-05-13T09:17:46.333Z,22.96
2023-05-13T09:18:46.383Z,22.96
2023-05-13T09:19:46.402Z,22.96
2023-05-13T09:20:46.381Z,23.02
2023-05-13T09:21:46.397Z,23.18
2023-05-13T09:22:46.429Z,23.25
2023-05-13T09:23:46.457Z,23.20
2023-05-13T09:24:46.482Z,23.32
2023-05-13T09:25:46.508Z,23.37
2023-05-13T09:26:46.556Z,23.29
2023-05-13T09:27:46.567Z,23.42
2023-05-13T09:28:46.598Z,23.45
2023-05-13T09:29:46.622Z,23.36
2023-05-13T09:30:46.954Z,23.39
2023-05-13T09:31:46.725Z,23.32
2023-05-13T09:32:46.764Z,23.26
2023-05-13T09:33:46.739Z,23.34
2023-05-13T09:34:46.761Z,23.42
2023-05-13T09:35:46.793Z,23.42
2023-05-13T09:36:46.821Z,23.47
2023-05-13T09:37:46.866Z,23.63
2023-05-13T09:38:46.880Z,23.82
2023-05-13T09:39:46.905Z,23.96
2023-05-13T09:40:46.940Z,23.91
2023-05-13T09:41:46.963Z,24.06
2023-05-13T09:42:46.990Z,24.07
2023-05-13T09:43:47.018Z,24.10
2023-05-13T09:44:47.053Z,24.13
2023-05-13T09:45:47.077Z,24.24
2023-05-13T09:46:47.173Z,24.37
2023-05-13T09:47:47.150Z,24.40
2023-05-13T09:48:47.165Z,24.40
2023-05-13T09:49:47.196Z,24.32
2023-05-13T09:50:47.240Z,24.47
2023-05-13T09:51:47.251Z,24.48
2023-05-13T09:52:47.288Z,24.59
2023-05-13T09:53:47.316Z,24.61
2023-05-13T09:54:47.340Z,24.82
2023-05-13T09:55:47.379Z,24.77
2023-05-13T09:56:47.397Z,24.93
2023-05-13T09:57:47.442Z,24.97
2023-05-13T09:58:47.468Z,25.09
2023-05-13T09:59:47.497Z,25.25
2023-05-13T10:00:47.601Z,25.34
2023-05-13T10:01:47.594Z,25.26
2023-05-13T10:02:47.616Z,25.29
2023-05-13T10:03:47.633Z,25.30
2023-05-13T10:04:47.638Z,25.43
2023-05-13T10:05:47.665Z,25.43
2023-05-13T10:06:47.695Z,25.43
2023-05-13T10:07:47.725Z,25.58
2023-05-13T10:08:47.763Z,25.54
2023-05-13T10:09:47.787Z,25.77
2023-05-13T10:10:47.821Z,25.81
2023-05-13T10:11:47.850Z,25.98
2023-05-13T10:12:47.880Z,26.24
2023-05-13T10:13:47.910Z,26.41
2023-05-13T10:14:47.942Z,26.64
2023-05-13T10:15:47.974Z,26.88
2023-05-13T10:16:48.099Z,27.04
2023-05-13T10:17:48.115Z,27.01
2023-05-13T10:18:48.111Z,27.13
2023-05-13T10:19:48.102Z,27.33
2023-05-13T10:20:48.134Z,27.44
2023-05-13T10:21:48.167Z,27.44
2023-05-13T10:22:48.195Z,27.63
2023-05-13T10:23:48.233Z,27.82
2023-05-13T10:24:48.267Z,27.83
2023-05-13T10:25:48.301Z,27.95
2023-05-13T10:26:48.331Z,28.03
2023-05-13T10:27:48.362Z,28.23
2023-05-13T10:28:48.393Z,28.37
2023-05-13T10:29:48.442Z,28.40
2023-05-13T10:30:48.461Z,28.68
2023-05-13T10:31:48.515Z,28.74
2023-05-13T10:32:48.559Z,28.68
2023-05-13T10:33:48.558Z,28.72
2023-05-13T10:34:48.600Z,29.05
2023-05-13T10:35:48.621Z,29.09
2023-05-13T10:36:48.689Z,29.18
2023-05-13T10:37:48.697Z,29.35
2023-05-13T10:38:48.724Z,29.34
2023-05-13T10:39:48.757Z,29.42
2023-05-13T10:40:48.793Z,29.65
2023-05-13T10:41:48.822Z,29.79
2023-05-13T10:42:48.866Z,29.92
2023-05-13T10:43:48.899Z,30.31
2023-05-13T10:44:48.925Z,30.33
2023-05-13T10:45:49.042Z,30.46
2023-05-13T10:46:49.122Z,30.39
2023-05-13T10:47:49.169Z,30.67
2023-05-13T10:48:49.102Z,30.80
2023-05-13T10:49:49.095Z,30.88
2023-05-13T10:50:49.133Z,30.89
2023-05-13T10:51:49.273Z,30.81
2023-05-13T10:52:49.196Z,30.91
2023-05-13T10:53:49.235Z,31.04
2023-05-13T10:54:49.264Z,31.04
2023-05-13T10:55:49.298Z,31.10
2023-05-13T10:56:49.336Z,31.26
2023-05-13T10:57:49.368Z,31.51
2023-05-13T10:58:49.410Z,31.59
2023-05-13T10:59:49.500Z,31.63
2023-05-13T11:00:49.474Z,31.73
2023-05-13T11:01:49.666Z,31.98
2023-05-13T11:02:49.663Z,31.93
2023-05-13T11:03:49.686Z,31.98
2023-05-13T11:04:49.617Z,31.97
2023-05-13T11:05:49.652Z,32.02
2023-05-13T11:06:49.699Z,32.09
2023-05-13T11:07:49.733Z,32.04
2023-05-13T11:08:49.763Z,32.20
2023-05-13T11:09:49.791Z,32.42
2023-05-13T11:10:49.845Z,32.48
2023-05-13T11:11:49.860Z,32.42
2023-05-13T11:12:49.911Z,32.60
2023-05-13T11:13:49.929Z,32.67
2023-05-13T11:14:49.965Z,32.75
2023-05-13T11:15:50.057Z,33.03
2023-05-13T11:16:50.037Z,33.20
2023-05-13T11:17:50.113Z,33.32
2023-05-13T11:18:50.128Z,33.31
2023-05-13T11:19:50.172Z,33.60
2023-05-13T11:20:52.717Z,33.40
2023-05-13T11:21:50.214Z,33.33
2023-05-13T11:22:50.254Z,33.36
2023-05-13T11:23:50.291Z,33.44
2023-05-13T11:24:50.332Z,33.45
2023-05-13T11:25:50.360Z,33.45
2023-05-13T11:26:50.400Z,33.22
2023-05-13T11:27:50.431Z,33.38
2023-05-13T11:28:50.469Z,33.26
2023-05-13T11:29:50.515Z,33.29
2023-05-13T11:30:50.541Z,33.29
2023-05-13T11:31:50.612Z,33.33
2023-05-13T11:32:50.643Z,33.39
2023-05-13T11:33:50.645Z,33.33
2023-05-13T11:34:50.679Z,33.53
2023-05-13T11:35:50.718Z,33.61
2023-05-13T11:36:50.753Z,33.65
2023-05-13T11:37:50.793Z,33.57
2023-05-13T11:38:50.824Z,33.77
2023-05-13T11:39:50.861Z,33.82
2023-05-13T11:40:50.896Z,33.77
2023-05-13T11:41:50.956Z,33.72
2023-05-13T11:42:50.970Z,33.53
2023-05-13T11:43:51.011Z,33.53
2023-05-13T11:44:51.039Z,33.44
2023-05-13T11:45:51.081Z,33.48
2023-05-13T11:46:51.111Z,33.55
2023-05-13T11:47:51.169Z,33.47
2023-05-13T11:48:51.184Z,33.61
2023-05-13T11:49:51.215Z,33.60
2023-05-13T11:50:51.258Z,33.39
2023-05-13T11:51:51.288Z,33.48
2023-05-13T11:52:51.326Z,33.58
2023-05-13T11:53:51.363Z,33.67
2023-05-13T11:54:51.432Z,33.53
2023-05-13T11:55:51.496Z,33.61
2023-05-13T11:56:51.478Z,33.72
2023-05-13T11:57:51.504Z,33.70
2023-05-13T11:58:51.543Z,33.79
2023-05-13T11:59:51.575Z,33.85
2023-05-13T12:00:51.609Z,33.75
2023-05-13T12:01:51.675Z,33.61
2023-05-13T12:02:51.853Z,33.55
2023-05-13T12:03:51.719Z,33.53
2023-05-13T12:04:51.816Z,33.45
2023-05-13T12:05:51.787Z,33.32
2023-05-13T12:06:51.821Z,33.32
2023-05-13T12:07:51.863Z,33.44
2023-05-13T12:08:51.926Z,33.39
2023-05-13T12:09:51.935Z,33.42
2023-05-13T12:10:51.971Z,33.57
2023-05-13T12:11:52.003Z,33.55
2023-05-13T12:12:52.039Z,33.60
2023-05-13T12:13:52.068Z,33.73
2023-05-13T12:14:52.111Z,33.70
2023-05-13T12:15:52.197Z,33.69
2023-05-13T12:16:52.186Z,33.70
2023-05-13T12:17:52.238Z,33.82
2023-05-13T12:18:52.309Z,33.84
2023-05-13T12:19:52.283Z,33.81
2023-05-13T12:20:52.320Z,33.85
2023-05-13T12:21:52.358Z,33.87
2023-05-13T12:22:52.550Z,33.81
2023-05-13T12:23:52.428Z,33.87
2023-05-13T12:24:52.462Z,34.02
2023-05-13T12:25:52.495Z,33.85
2023-05-13T12:26:52.531Z,33.72
2023-05-13T12:27:52.569Z,33.67
2023-05-13T12:28:52.609Z,33.72
2023-05-13T12:29:52.638Z,33.70
2023-05-13T12:30:52.672Z,33.75
2023-05-13T12:31:52.814Z,33.79
2023-05-13T12:32:52.773Z,34.00
2023-05-13T12:33:52.786Z,34.06
2023-05-13T12:34:52.816Z,34.24
2023-05-13T12:35:52.904Z,34.19
2023-05-13T12:36:52.943Z,34.21
2023-05-13T12:37:52.921Z,34.18
2023-05-13T12:38:52.955Z,34.19
2023-05-13T12:39:52.987Z,34.13
2023-05-13T12:40:53.025Z,33.95
2023-05-13T12:41:53.059Z,33.88
2023-05-13T12:42:53.094Z,34.07
2023-05-13T12:43:53.131Z,33.98
2023-05-13T12:44:53.171Z,33.81
2023-05-13T12:45:53.212Z,33.77
2023-05-13T12:46:53.386Z,33.77
2023-05-13T12:47:53.286Z,33.82
2023-05-13T12:48:53.384Z,33.84
2023-05-13T12:49:53.410Z,33.75
2023-05-13T12:50:53.416Z,33.70
2023-05-13T12:51:53.480Z,33.77
2023-05-13T12:52:53.469Z,33.65